createdAt,value
2018-04-01T00:00:37.833Z,5.43
2018-04-01T00:03:04.640Z,5.93
2018-04-01T00:05:33.326Z,5.93
2018-04-01T00:08:00.066Z,6.37
2018-04-01T00:10:27.829Z,7.27
2018-04-01T00:12:54.578Z,8.40
2018-04-01T00:15:22.633Z,8.67
2018-04-01T00:17:49.385Z,9.00
2018-04-01T00:20:16.127Z,8.63
2018-04-01T00:22:43.687Z,9.13
2018-04-01T00:25:10.430Z,8.80
2018-04-01T00:27:39.115Z,8.17
2018-04-01T00:30:06.061Z,8.43
2018-04-01T00:32:32.803Z,8.57
2018-04-01T00:34:59.549Z,9.57
2018-04-01T00:37:26.488Z,8.80
2018-04-01T00:39:54.051Z,8.67
2018-04-01T00:42:20.792Z,8.67
2018-04-01T00:44:48.460Z,8.50
2018-04-01T00:47:15.196Z,8.17
2018-04-01T00:49:43.404Z,8.13
2018-04-01T00:52:10.058Z,8.57
2018-04-01T00:54:39.232Z,8.77
2018-04-01T00:57:06.057Z,8.07
2018-04-01T00:59:33.103Z,8.10
2018-04-01T01:02:00.867Z,8.87
2018-04-01T01:04:27.606Z,8.67
2018-04-01T01:06:55.890Z,8.90
2018-04-01T01:09:22.734Z,8.50
2018-04-01T01:11:49.469Z,8.33
2018-04-01T01:14:16.115Z,7.93
2018-04-01T01:16:44.082Z,8.27
2018-04-01T01:19:10.773Z,8.73
2018-04-01T01:21:37.567Z,8.53
2018-04-01T01:24:05.334Z,8.80
2018-04-01T01:26:32.068Z,7.70
2018-04-01T01:28:59.117Z,8.90
2018-04-01T01:31:26.785Z,9.27
2018-04-01T01:33:54.551Z,8.20
2018-04-01T01:36:21.394Z,8.63
2018-04-01T01:38:49.610Z,8.57
2018-04-01T01:41:16.341Z,8.57
2018-04-01T01:43:46.795Z,6.73
2018-04-01T01:46:13.576Z,9.00
2018-04-01T01:48:40.727Z,7.20
2018-04-01T01:51:07.470Z,7.57
2018-04-01T01:53:34.215Z,7.33
2018-04-01T01:56:00.995Z,7.20
2018-04-01T01:58:27.796Z,8.47
2018-04-01T02:00:54.638Z,7.93
2018-04-01T02:03:21.379Z,7.50
2018-04-01T02:05:48.127Z,7.20
2018-04-01T02:08:15.067Z,7.33
2018-04-01T02:10:41.916Z,7.23
2018-04-01T02:13:09.677Z,7.53
2018-04-01T02:15:36.828Z,8.10
2018-04-01T02:18:03.671Z,7.67
2018-04-01T02:20:30.519Z,7.87
2018-04-01T02:22:57.262Z,8.40
2018-04-01T02:25:24.110Z,7.77
2018-04-01T02:27:50.949Z,7.33
2018-04-01T02:30:17.794Z,8.03
2018-04-01T02:33:00.029Z,7.90
2018-04-01T02:35:43.099Z,8.07
2018-04-01T02:38:09.865Z,7.37
2018-04-01T02:40:38.984Z,7.50
2018-04-01T02:43:05.804Z,7.87
2018-04-01T02:45:32.543Z,8.03
2018-04-01T02:48:00.247Z,7.70
2018-04-01T02:50:27.054Z,7.90
2018-04-01T02:52:53.899Z,7.87
2018-04-01T02:55:20.639Z,8.00
2018-04-01T02:57:47.318Z,7.67
2018-04-01T03:00:14.118Z,7.70
2018-04-01T03:02:40.862Z,7.90
2018-04-01T03:05:07.597Z,7.83
2018-04-01T03:07:34.339Z,7.73
2018-04-01T03:10:01.090Z,8.50
2018-04-01T03:12:29.975Z,7.80
2018-04-01T03:14:56.926Z,8.30
2018-04-01T03:17:23.659Z,8.13
2018-04-01T03:19:50.401Z,7.30
2018-04-01T03:22:17.147Z,7.93
2018-04-01T03:24:45.218Z,8.10
2018-04-01T03:27:11.954Z,8.40
2018-04-01T03:29:39.311Z,8.53
2018-04-01T03:32:06.058Z,8.47
2018-04-01T03:34:32.793Z,8.07
2018-04-01T03:36:59.485Z,8.10
2018-04-01T03:39:27.098Z,8.80
2018-04-01T03:41:53.940Z,8.20
2018-04-01T03:44:20.681Z,7.97
2018-04-01T03:46:47.734Z,7.07
2018-04-01T03:49:14.470Z,7.17
2018-04-01T03:51:42.446Z,7.27
2018-04-01T03:54:09.218Z,6.90
2018-04-01T03:56:36.339Z,7.33
2018-04-01T03:59:03.587Z,7.20
2018-04-01T04:01:30.538Z,7.27
2018-04-01T04:03:58.608Z,6.70
2018-04-01T04:06:25.392Z,6.93
2018-04-01T04:08:53.111Z,6.40
2018-04-01T04:11:19.956Z,6.20
2018-04-01T04:13:46.702Z,7.07
2018-04-01T04:16:13.852Z,6.13
2018-04-01T04:18:40.897Z,6.63
2018-04-01T04:21:07.738Z,6.83
2018-04-01T04:23:34.481Z,6.47
2018-04-01T04:26:01.226Z,6.93
2018-04-01T04:28:27.963Z,6.50
2018-04-01T04:30:54.848Z,6.70
2018-04-01T04:33:21.650Z,6.90
2018-04-01T04:35:48.391Z,6.57
2018-04-01T04:38:15.137Z,6.93
2018-04-01T04:40:43.518Z,7.00
2018-04-01T04:43:10.764Z,6.50
2018-04-01T04:45:38.847Z,6.53
2018-04-01T04:48:05.989Z,6.40
2018-04-01T04:50:33.658Z,6.63
2018-04-01T04:53:00.393Z,6.20
2018-04-01T04:55:27.351Z,6.63
2018-04-01T04:57:54.081Z,6.53
2018-04-01T05:00:20.824Z,6.57
2018-04-01T05:02:48.939Z,7.53
2018-04-01T05:05:15.741Z,6.80
2018-04-01T05:07:42.485Z,7.30
2018-04-01T05:10:10.143Z,8.00
2018-04-01T05:12:38.828Z,7.63
2018-04-01T05:15:05.673Z,8.87
2018-04-01T05:17:32.414Z,8.30
2018-04-01T05:19:59.468Z,7.80
2018-04-01T05:22:26.312Z,7.57
2018-04-01T05:24:53.155Z,7.60
2018-04-01T05:27:19.892Z,8.03
2018-04-01T05:29:46.843Z,7.60
2018-04-01T05:32:13.624Z,7.63
2018-04-01T05:34:41.344Z,6.73
2018-04-01T05:37:08.399Z,6.83
2018-04-01T05:39:36.364Z,6.97
2018-04-01T05:42:03.104Z,7.10
2018-04-01T05:44:31.080Z,7.17
2018-04-01T05:46:57.825Z,7.13
2018-04-01T05:49:24.678Z,6.97
2018-04-01T05:51:53.353Z,7.27
2018-04-01T05:54:20.094Z,8.33
2018-04-01T05:56:47.962Z,8.43
2018-04-01T05:59:14.696Z,8.67
2018-04-01T06:01:41.541Z,8.83
2018-04-01T06:04:08.282Z,8.97
2018-04-01T06:06:34.966Z,9.33
2018-04-01T06:09:01.764Z,9.43
2018-04-01T06:11:28.505Z,9.23
2018-04-01T06:13:55.452Z,8.63
2018-04-01T06:16:22.709Z,7.43
2018-04-01T06:18:49.449Z,6.80
2018-04-01T06:21:16.188Z,6.40
2018-04-01T06:23:44.163Z,6.67
2018-04-01T06:26:10.898Z,6.70
2018-04-01T06:28:40.405Z,7.03
2018-04-01T06:31:07.152Z,6.70
2018-04-01T06:33:36.158Z,7.20
2018-04-01T06:36:03.910Z,7.67
2018-04-01T06:38:30.652Z,7.93
2018-04-01T06:40:57.388Z,7.80
2018-04-01T06:43:28.002Z,6.50
2018-04-01T06:45:55.786Z,5.77
2018-04-01T06:48:22.528Z,5.37
2018-04-01T06:50:52.544Z,5.50
2018-04-01T06:53:19.190Z,5.37
2018-04-01T06:55:45.926Z,4.80
2018-04-01T06:58:13.589Z,13.33
2018-04-01T07:00:40.270Z,4.80
2018-04-01T07:03:07.424Z,4.50
2018-04-01T07:05:34.428Z,4.47
2018-04-01T07:08:01.173Z,3.93
2018-04-01T07:10:28.729Z,3.93
2018-04-01T07:12:55.499Z,3.97
2018-04-01T07:15:22.415Z,3.83
2018-04-01T07:17:49.260Z,4.20
2018-04-01T07:20:16.009Z,3.90
2018-04-01T07:22:43.255Z,4.10
2018-04-01T07:25:11.538Z,3.70
2018-04-01T07:27:38.276Z,3.97
2018-04-01T07:30:06.038Z,3.50
2018-04-01T07:32:32.783Z,3.87
2018-04-01T07:34:59.628Z,5.63
2018-04-01T07:40:13.023Z,3.57
2018-04-01T07:42:39.818Z,3.20
2018-04-01T07:45:08.402Z,3.57
2018-04-01T07:47:35.142Z,8.97
2018-04-01T07:50:01.883Z,3.53
2018-04-01T07:52:28.630Z,3.27
2018-04-01T07:54:55.365Z,3.30
2018-04-01T07:57:23.383Z,13.03
2018-04-01T07:59:51.551Z,16.97
2018-04-01T08:02:18.353Z,3.37
2018-04-01T08:04:46.541Z,3.13
2018-04-01T08:07:14.759Z,2.90
2018-04-01T08:09:45.491Z,3.10
2018-04-01T08:12:14.394Z,2.87
2018-04-01T08:14:43.221Z,3.03
2018-04-01T08:17:12.867Z,2.57
2018-04-01T08:19:41.687Z,2.40
2018-04-01T08:22:10.182Z,2.80
2018-04-01T08:24:39.303Z,2.73
2018-04-01T08:27:08.825Z,3.17
2018-04-01T08:29:37.834Z,2.90
2018-04-01T08:32:08.201Z,3.03
2018-04-01T08:34:37.526Z,3.10
2018-04-01T08:37:07.243Z,3.27
2018-04-01T08:39:35.721Z,3.80
2018-04-01T08:42:04.568Z,2.30
2018-04-01T08:44:33.317Z,2.13
2018-04-01T08:47:02.082Z,2.30
2018-04-01T08:49:30.669Z,1.70
2018-04-01T08:51:59.620Z,2.00
2018-04-01T08:54:28.316Z,2.33
2018-04-01T08:56:57.040Z,2.03
2018-04-01T08:59:26.922Z,1.40
2018-04-01T09:01:55.550Z,1.40
2018-04-01T09:04:23.574Z,1.50
2018-04-01T09:06:51.695Z,1.47
2018-04-01T09:09:18.942Z,1.60
2018-04-01T09:11:45.997Z,1.60
2018-04-01T09:14:12.732Z,1.70
2018-04-01T09:16:39.475Z,2.10
2018-04-01T09:19:06.421Z,1.77
2018-04-01T09:21:33.162Z,1.50
2018-04-01T09:24:00.931Z,1.90
2018-04-01T09:26:27.673Z,2.03
2018-04-01T09:28:54.411Z,2.20
2018-04-01T09:31:21.253Z,2.30
2018-04-01T09:33:48.096Z,2.00
2018-04-01T09:36:14.838Z,2.20
2018-04-01T09:38:41.584Z,2.00
2018-04-01T09:41:08.428Z,1.90
2018-04-01T09:43:35.165Z,2.20
2018-04-01T09:46:01.851Z,1.90
2018-04-01T09:48:28.652Z,2.27
2018-04-01T09:50:55.389Z,2.33
2018-04-01T09:53:23.289Z,2.13
2018-04-01T09:56:03.950Z,2.43
2018-04-01T09:58:44.971Z,2.37
2018-04-01T10:01:20.789Z,3.03
2018-04-01T10:04:01.578Z,3.07
2018-04-01T10:06:34.601Z,3.58
2018-04-01T10:09:01.663Z,3.10
2018-04-01T10:11:29.383Z,2.95
2018-04-01T10:13:56.319Z,2.53
2018-04-01T10:16:23.334Z,2.70
2018-04-01T10:18:50.376Z,2.40
2018-04-01T10:21:17.327Z,2.42
2018-04-01T10:23:44.365Z,1.65
2018-04-01T10:26:11.414Z,2.00
2018-04-01T10:28:39.082Z,2.22
2018-04-01T10:31:06.068Z,1.95
2018-04-01T10:33:33.084Z,2.55
2018-04-01T10:36:00.120Z,3.33
2018-04-01T10:38:41.156Z,2.90
2018-04-01T10:41:11.407Z,2.28
2018-04-01T10:43:39.638Z,3.03
2018-04-01T10:46:06.748Z,2.90
2018-04-01T10:48:33.805Z,2.33
2018-04-01T10:51:01.970Z,2.00
2018-04-01T10:53:28.959Z,3.25
2018-04-01T10:55:55.761Z,3.70
2018-04-01T10:58:22.604Z,3.00
2018-04-01T11:00:49.345Z,3.12
2018-04-01T11:03:16.092Z,1.90
2018-04-01T11:05:42.827Z,3.25
2018-04-01T11:08:10.901Z,1.92
2018-04-01T11:10:37.744Z,3.10
2018-04-01T11:13:04.486Z,3.22
2018-04-01T11:15:31.201Z,2.05
2018-04-01T11:17:57.969Z,3.40
2018-04-01T11:20:25.939Z,2.37
2018-04-01T11:22:52.692Z,3.20
2018-04-01T11:25:19.528Z,3.28
2018-04-01T11:27:46.451Z,1.45
2018-04-01T11:30:13.216Z,3.85
2018-04-01T11:32:40.570Z,3.60
2018-04-01T11:35:07.312Z,3.30
2018-04-01T11:37:34.156Z,4.00
2018-04-01T11:40:02.371Z,3.05
2018-04-01T11:42:29.175Z,5.20
2018-04-01T11:44:55.918Z,5.03
2018-04-01T11:47:23.166Z,3.65
2018-04-01T11:49:50.932Z,4.70
2018-04-01T11:52:18.808Z,5.10
2018-04-01T11:54:47.277Z,4.82
2018-04-01T11:57:14.124Z,5.43
2018-04-01T11:59:40.970Z,4.10
2018-04-01T12:02:07.718Z,3.05
2018-04-01T12:04:34.453Z,1.60
2018-04-01T12:07:01.439Z,4.85
2018-04-01T12:09:29.061Z,5.53
2018-04-01T12:12:08.162Z,5.30
2018-04-01T12:14:47.823Z,5.82
2018-04-01T12:17:28.131Z,5.70
2018-04-01T12:19:54.946Z,4.95
2018-04-01T12:22:21.681Z,5.10
2018-04-01T12:24:48.422Z,3.53
2018-04-01T12:27:15.268Z,5.40
2018-04-01T12:29:42.012Z,4.50
2018-04-01T12:32:08.697Z,2.95
2018-04-01T12:34:35.491Z,5.37
2018-04-01T12:37:03.567Z,5.40
2018-04-01T12:39:30.406Z,3.95
2018-04-01T12:41:57.084Z,4.03
2018-04-01T12:44:23.889Z,3.50
2018-04-01T12:46:50.630Z,2.90
2018-04-01T12:49:18.607Z,2.58
2018-04-01T12:51:46.469Z,3.72
2018-04-01T12:54:13.262Z,3.28
2018-04-01T12:56:40.063Z,3.30
2018-04-01T12:59:10.218Z,3.37
2018-04-01T13:01:37.163Z,3.20
2018-04-01T13:04:03.971Z,2.53
2018-04-01T13:06:30.706Z,1.73
2018-04-01T13:08:57.754Z,3.30
2018-04-01T13:11:24.501Z,2.37
2018-04-01T13:13:51.237Z,3.40
2018-04-01T13:16:17.978Z,3.50
2018-04-01T13:18:44.761Z,4.00
2018-04-01T13:21:11.569Z,1.85
2018-04-01T13:23:52.977Z,3.28
2018-04-01T13:26:25.226Z,3.50
2018-04-01T13:28:51.960Z,4.03
2018-04-01T13:31:18.806Z,1.67
2018-04-01T13:33:45.547Z,4.15
2018-04-01T13:36:12.295Z,1.40
2018-04-01T13:38:39.137Z,3.55
2018-04-01T13:41:05.980Z,4.22
2018-04-01T13:43:32.716Z,4.72
2018-04-01T13:45:59.463Z,4.57
2018-04-01T13:48:27.433Z,4.15
2018-04-01T13:50:54.291Z,3.95
2018-04-01T13:53:21.013Z,4.80
2018-04-01T13:55:48.887Z,5.00
2018-04-01T13:58:15.664Z,3.22
2018-04-01T14:00:42.417Z,3.78
2018-04-01T14:03:09.209Z,4.95
2018-04-01T14:05:35.954Z,5.15
2018-04-01T14:08:02.691Z,4.50
2018-04-01T14:10:30.354Z,5.60
2018-04-01T14:12:57.030Z,5.80
2018-04-01T14:15:23.836Z,3.80
2018-04-01T14:17:50.663Z,5.80
2018-04-01T14:20:17.632Z,5.40
2018-04-01T14:22:44.368Z,2.85
2018-04-01T14:25:11.111Z,5.70
2018-04-01T14:27:38.572Z,4.93
2018-04-01T14:30:05.415Z,4.55
2018-04-01T14:32:45.909Z,4.82
2018-04-01T14:35:18.561Z,4.82
2018-04-01T14:37:45.298Z,4.40
2018-04-01T14:40:12.043Z,5.07
2018-04-01T14:42:38.884Z,5.65
2018-04-01T14:45:05.727Z,2.90
2018-04-01T14:47:32.569Z,3.83
2018-04-01T14:49:59.315Z,7.35
2018-04-01T14:52:26.564Z,7.00
2018-04-01T14:54:53.312Z,7.50
2018-04-01T14:57:20.156Z,7.35
2018-04-01T14:59:46.889Z,5.45
2018-04-01T15:02:13.633Z,8.20
2018-04-01T15:04:41.707Z,8.50
2018-04-01T15:07:09.372Z,8.77
2018-04-01T15:09:36.110Z,6.43
2018-04-01T15:12:04.182Z,8.35
2018-04-01T15:14:31.025Z,8.07
2018-04-01T15:16:57.766Z,8.52
2018-04-01T15:19:25.839Z,8.60
2018-04-01T15:21:53.818Z,8.52
2018-04-01T15:24:20.551Z,8.73
2018-04-01T15:26:48.425Z,8.45
2018-04-01T15:29:16.496Z,8.43
2018-04-01T15:31:43.235Z,7.28
2018-04-01T15:34:11.460Z,8.00
2018-04-01T15:36:38.258Z,7.95
2018-04-01T15:39:05.102Z,7.80
2018-04-01T15:41:33.174Z,8.30
2018-04-01T15:43:59.956Z,8.02
2018-04-01T15:46:30.780Z,3.63
2018-04-01T15:48:57.592Z,7.60
2018-04-01T15:51:24.542Z,8.30
2018-04-01T15:54:00.580Z,7.97
2018-04-01T15:56:43.738Z,7.17
2018-04-01T15:59:10.468Z,10.07
2018-04-01T16:01:37.818Z,9.03
2018-04-01T16:04:12.427Z,7.10
2018-04-01T16:06:39.501Z,9.33
2018-04-01T16:09:06.442Z,9.20
2018-04-01T16:11:33.181Z,9.83
2018-04-01T16:14:00.333Z,8.70
2018-04-01T16:16:27.080Z,6.97
2018-04-01T16:18:54.943Z,10.57
2018-04-01T16:21:21.689Z,7.93
2018-04-01T16:23:48.424Z,9.87
2018-04-01T16:26:15.269Z,7.00
2018-04-01T16:28:43.192Z,9.90
2018-04-01T16:31:09.986Z,7.43
2018-04-01T16:33:36.833Z,9.33
2018-04-01T16:36:03.567Z,10.13
2018-04-01T16:38:30.308Z,9.70
2018-04-01T16:40:57.458Z,8.77
2018-04-01T16:43:24.302Z,11.63
2018-04-01T16:45:51.760Z,12.33
2018-04-01T16:48:18.603Z,8.50
2018-04-01T16:50:45.352Z,10.43
2018-04-01T16:53:12.088Z,11.13
2018-04-01T16:55:39.349Z,11.20
2018-04-01T16:58:06.191Z,8.33
2018-04-01T17:00:32.926Z,10.80
2018-04-01T17:03:00.953Z,9.93
2018-04-01T17:05:27.739Z,7.90
2018-04-01T17:07:54.792Z,7.50
2018-04-01T17:10:21.531Z,11.50
2018-04-01T17:12:48.374Z,12.67
2018-04-01T17:15:15.114Z,12.03
2018-04-01T17:17:41.958Z,11.47
2018-04-01T17:20:09.643Z,12.77
2018-04-01T17:22:36.522Z,12.73
2018-04-01T17:25:06.024Z,4.93
2018-04-01T17:27:32.820Z,16.20
2018-04-01T17:29:59.557Z,12.63
2018-04-01T17:32:26.305Z,14.17
2018-04-01T17:34:53.046Z,12.57
2018-04-01T17:37:21.112Z,13.77
2018-04-01T17:39:47.853Z,12.97
2018-04-01T17:42:14.984Z,16.10
2018-04-01T17:44:41.950Z,14.60
2018-04-01T17:47:08.696Z,15.80
2018-04-01T17:49:35.946Z,12.37
2018-04-01T17:54:37.687Z,18.70
2018-04-01T17:57:05.497Z,18.17
2018-04-01T17:59:32.456Z,16.10
2018-04-01T18:01:59.687Z,16.90
2018-04-01T18:04:26.429Z,14.87
2018-04-01T18:06:53.175Z,10.17
2018-04-01T18:09:21.083Z,4.97
2018-04-01T18:11:49.466Z,6.20
2018-04-01T18:14:16.567Z,5.60
2018-04-01T18:16:43.315Z,12.33
2018-04-01T18:19:10.104Z,10.23
2018-04-01T18:21:36.894Z,8.90
2018-04-01T18:24:04.969Z,14.13
2018-04-01T18:26:46.536Z,10.93
2018-04-01T18:29:34.698Z,11.90
2018-04-01T18:32:01.551Z,5.43
2018-04-01T18:34:28.230Z,6.73
2018-04-01T18:36:55.333Z,10.87
2018-04-01T18:39:22.080Z,9.20
2018-04-01T18:41:48.817Z,11.07
2018-04-01T18:44:15.560Z,12.73
2018-04-01T18:46:42.306Z,10.40
2018-04-01T18:49:11.090Z,9.80
2018-04-01T18:51:37.703Z,6.67
2018-04-01T18:54:04.472Z,8.70
2018-04-01T18:56:31.416Z,9.07
2018-04-01T18:58:58.261Z,9.23
2018-04-01T19:01:25.000Z,8.03
2018-04-01T19:03:51.947Z,9.47
2018-04-01T19:06:18.790Z,6.70
2018-04-01T19:08:47.215Z,7.23
2018-04-01T19:11:14.220Z,7.90
2018-04-01T19:13:41.371Z,9.40
2018-04-01T19:16:08.425Z,12.97
2018-04-01T19:18:36.081Z,10.53
2018-04-01T19:21:03.587Z,8.33
2018-04-01T19:23:30.588Z,7.70
2018-04-01T19:25:57.642Z,13.93
2018-04-01T19:28:25.955Z,13.10
2018-04-01T19:30:52.962Z,8.87
2018-04-01T19:33:20.017Z,14.63
2018-04-01T19:35:47.059Z,8.17
2018-04-01T19:38:14.934Z,8.47
2018-04-01T19:40:43.007Z,6.33
2018-04-01T19:43:10.048Z,8.30
2018-04-01T19:45:51.940Z,6.70
2018-04-01T19:48:36.714Z,4.60
2018-04-01T19:51:13.621Z,8.10
2018-04-01T19:53:40.739Z,8.43
2018-04-01T19:56:07.789Z,11.87
2018-04-01T19:58:34.845Z,9.77
2018-04-01T20:01:02.398Z,10.40
2018-04-01T20:03:30.162Z,9.03
2018-04-01T20:05:57.215Z,11.57
2018-04-01T20:08:24.260Z,9.67
2018-04-01T20:10:51.308Z,11.20
2018-04-01T20:13:18.361Z,13.63
2018-04-01T20:15:45.360Z,4.93
2018-04-01T20:18:13.152Z,14.33
2018-04-01T20:20:40.125Z,9.00
2018-04-01T20:23:07.253Z,10.57
2018-04-01T20:25:34.321Z,14.10
2018-04-01T20:28:01.369Z,14.17
2018-04-01T20:30:28.823Z,14.80
2018-04-01T20:32:55.877Z,14.90
2018-04-01T20:35:22.925Z,13.10
2018-04-01T20:37:50.379Z,13.83
2018-04-01T20:40:17.367Z,12.37
2018-04-01T20:42:46.523Z,13.70
2018-04-01T20:45:13.675Z,13.83
2018-04-01T20:47:40.933Z,13.53
2018-04-01T20:50:08.999Z,14.37
2018-04-01T20:52:38.608Z,13.93
2018-04-01T20:55:05.606Z,13.80
2018-04-01T20:57:32.789Z,13.90
2018-04-01T21:00:01.032Z,13.83
2018-04-01T21:02:28.286Z,12.27
2018-04-01T21:04:55.757Z,12.33
2018-04-01T21:07:23.406Z,10.93
2018-04-01T21:09:50.463Z,11.23
2018-04-01T21:12:18.322Z,9.70
2018-04-01T21:14:45.576Z,8.93
2018-04-01T21:17:12.625Z,8.13
2018-04-01T21:19:39.678Z,7.63
2018-04-01T21:22:07.851Z,7.53
2018-04-01T21:24:35.000Z,7.77
2018-04-01T21:27:03.304Z,7.70
2018-04-01T21:29:30.328Z,8.57
2018-04-01T21:31:57.386Z,9.30
2018-04-01T21:34:24.735Z,6.80
2018-04-01T21:36:51.778Z,5.50
2018-04-01T21:39:18.827Z,5.83
2018-04-01T21:41:46.495Z,4.87
2018-04-01T21:44:13.537Z,5.57
2018-04-01T21:46:40.588Z,5.57
2018-04-01T21:49:07.641Z,5.47
2018-04-01T21:51:34.683Z,5.70
2018-04-01T21:54:01.732Z,6.10
2018-04-01T21:56:28.677Z,5.73
2018-04-01T21:58:55.727Z,5.60
2018-04-01T22:01:22.780Z,5.30
2018-04-01T22:03:50.642Z,5.10
2018-04-01T22:06:17.635Z,4.90
2018-04-01T22:08:44.638Z,4.90
2018-04-01T22:11:12.710Z,4.43
2018-04-01T22:13:39.818Z,4.30
2018-04-01T22:16:06.915Z,3.90
2018-04-01T22:18:35.085Z,4.00
2018-04-01T22:21:02.031Z,3.53
2018-04-01T22:23:29.080Z,3.70
2018-04-01T22:25:57.092Z,3.90
2018-04-01T22:28:24.098Z,4.30
2018-04-01T22:30:51.094Z,3.93
2018-04-01T22:33:18.552Z,4.40
2018-04-01T22:35:45.551Z,4.50
2018-04-01T22:38:14.135Z,4.33
2018-04-01T22:40:41.193Z,4.50
2018-04-01T22:43:08.232Z,4.33
2018-04-01T22:45:35.280Z,3.83
2018-04-01T22:48:02.334Z,4.23
2018-04-01T22:50:29.793Z,4.47
2018-04-01T22:52:56.836Z,4.40
2018-04-01T22:55:23.884Z,4.17
2018-04-01T22:57:50.937Z,4.13
2018-04-01T23:00:17.980Z,3.90
2018-04-01T23:02:44.969Z,4.40
2018-04-01T23:05:11.976Z,3.93
2018-04-01T23:07:39.025Z,4.10
2018-04-01T23:10:06.790Z,3.90
2018-04-01T23:12:33.843Z,3.80
2018-04-01T23:15:00.887Z,3.97
2018-04-01T23:17:27.933Z,3.93
2018-04-01T23:19:54.989Z,3.80
2018-04-01T23:22:22.034Z,3.70
2018-04-01T23:24:50.002Z,4.30
2018-04-01T23:27:17.157Z,3.80
2018-04-01T23:29:44.207Z,3.87
2018-04-01T23:32:11.249Z,3.80
2018-04-01T23:34:38.202Z,3.80
2018-04-01T23:37:06.781Z,3.83
2018-04-01T23:39:33.829Z,3.90
2018-04-01T23:42:00.884Z,3.73
2018-04-01T23:44:27.930Z,3.40
2018-04-01T23:46:54.931Z,3.80
2018-04-01T23:49:21.922Z,3.83
2018-04-01T23:51:49.796Z,3.70
2018-04-01T23:54:18.072Z,3.60
2018-04-01T23:56:45.114Z,3.60
2018-04-01T23:59:12.171Z,3.70
